sensor_id;sensor_type;location;lat;lon;timestamp;pressure;altitude;pressure_sealevel;temperature;humidity
70521;BME280;58442;52.716;23.560;2023-12-07T00:00:17;101978.75;;;0.64;74.93
70521;BME280;58442;52.716;23.560;2023-12-07T00:02:24;101983.04;;;0.65;74.93
70521;BME280;58442;52.716;23.560;2023-12-07T00:04:25;101978.75;;;0.64;74.92
70521;BME280;58442;52.716;23.560;2023-12-07T00:06:30;101981.43;;;0.64;74.85
70521;BME280;58442;52.716;23.560;2023-12-07T00:08:32;101991.06;;;0.65;74.96
70521;BME280;58442;52.716;23.560;2023-12-07T00:10:34;101992.67;;;0.66;74.92
70521;BME280;58442;52.716;23.560;2023-12-07T00:12:35;101994.55;;;0.65;74.91
70521;BME280;58442;52.716;23.560;2023-12-07T00:14:46;102003.89;;;0.63;74.93
70521;BME280;58442;52.716;23.560;2023-12-07T00:16:47;102000.63;;;0.61;74.99
70521;BME280;58442;52.716;23.560;2023-12-07T00:18:50;101998.22;;;0.59;75.08
70521;BME280;58442;52.716;23.560;2023-12-07T00:20:51;102002.76;;;0.59;75.20
70521;BME280;58442;52.716;23.560;2023-12-07T00:23:01;102012.66;;;0.58;75.10
70521;BME280;58442;52.716;23.560;2023-12-07T00:25:03;102008.11;;;0.59;75.10
70521;BME280;58442;52.716;23.560;2023-12-07T00:27:05;102006.49;;;0.58;75.10
70521;BME280;58442;52.716;23.560;2023-12-07T00:29:06;102016.13;;;0.59;75.12
70521;BME280;58442;52.716;23.560;2023-12-07T00:31:16;102010.78;;;0.59;75.23
70521;BME280;58442;52.716;23.560;2023-12-07T00:33:17;102009.17;;;0.58;75.09
70521;BME280;58442;52.716;23.560;2023-12-07T00:35:19;102009.17;;;0.58;75.11
70521;BME280;58442;52.716;23.560;2023-12-07T00:37:23;102014.27;;;0.59;75.16
70521;BME280;58442;52.716;23.560;2023-12-07T00:39:31;102015.06;;;0.60;75.09
70521;BME280;58442;52.716;23.560;2023-12-07T00:41:32;102013.46;;;0.59;75.10
70521;BME280;58442;52.716;23.560;2023-12-07T00:43:34;102013.46;;;0.59;75.07
70521;BME280;58442;52.716;23.560;2023-12-07T00:45:36;102017.20;;;0.58;75.13
70521;BME280;58442;52.716;23.560;2023-12-07T00:47:46;102012.91;;;0.57;75.15
70521;BME280;58442;52.716;23.560;2023-12-07T00:49:48;102009.43;;;0.56;75.19
70521;BME280;58442;52.716;23.560;2023-12-07T00:51:49;102008.11;;;0.59;75.22
70521;BME280;58442;52.716;23.560;2023-12-07T00:53:51;102007.81;;;0.55;75.17
70521;BME280;58442;52.716;23.560;2023-12-07T00:56:03;102023.02;;;0.54;75.22
70521;BME280;58442;52.716;23.560;2023-12-07T00:58:05;102018.52;;;0.55;75.28
70521;BME280;58442;52.716;23.560;2023-12-07T01:00:07;102018.52;;;0.55;75.28
70521;BME280;58442;52.716;23.560;2023-12-07T01:02:10;102018.01;;;0.58;75.23
70521;BME280;58442;52.716;23.560;2023-12-07T01:04:17;102013.21;;;0.60;75.18
70521;BME280;58442;52.716;23.560;2023-12-07T01:06:19;102012.95;;;0.62;75.19
70521;BME280;58442;52.716;23.560;2023-12-07T01:08:20;102012.95;;;0.62;75.12
70521;BME280;58442;52.716;23.560;2023-12-07T01:10:22;102009.24;;;0.63;75.08
70521;BME280;58442;52.716;23.560;2023-12-07T01:12:32;102012.46;;;0.65;75.09
70521;BME280;58442;52.716;23.560;2023-12-07T01:14:33;102014.08;;;0.66;75.08
70521;BME280;58442;52.716;23.560;2023-12-07T01:16:35;102004.99;;;0.67;75.06
70521;BME280;58442;52.716;23.560;2023-12-07T01:18:37;102014.89;;;0.66;75.06
70521;BME280;58442;52.716;23.560;2023-12-07T01:20:47;102015.70;;;0.67;75.10
70521;BME280;58442;52.716;23.560;2023-12-07T01:22:49;102012.77;;;0.68;75.11
70521;BME280;58442;52.716;23.560;2023-12-07T01:24:51;102016.27;;;0.69;75.07
70521;BME280;58442;52.716;23.560;2023-12-07T01:26:53;102006.60;;;0.68;75.03
70521;BME280;58442;52.716;23.560;2023-12-07T01:29:02;102001.25;;;0.68;75.10
70521;BME280;58442;52.716;23.560;2023-12-07T01:31:04;101996.71;;;0.68;75.08
70521;BME280;58442;52.716;23.560;2023-12-07T01:33:05;101994.87;;;0.69;75.07
70521;BME280;58442;52.716;23.560;2023-12-07T01:35:08;101986.01;;;0.68;75.06
70521;BME280;58442;52.716;23.560;2023-12-07T01:37:17;101994.30;;;0.67;75.06
70521;BME280;58442;52.716;23.560;2023-12-07T01:39:19;101992.38;;;0.62;75.15
70521;BME280;58442;52.716;23.560;2023-12-07T01:41:21;101987.27;;;0.61;75.21
70521;BME280;58442;52.716;23.560;2023-12-07T01:43:24;101987.84;;;0.63;75.26
70521;BME280;58442;52.716;23.560;2023-12-07T01:45:32;101993.19;;;0.63;75.21
70521;BME280;58442;52.716;23.560;2023-12-07T01:47:35;101987.84;;;0.63;75.21
70521;BME280;58442;52.716;23.560;2023-12-07T01:49:38;101985.72;;;0.65;75.21
70521;BME280;58442;52.716;23.560;2023-12-07T01:51:40;101977.69;;;0.65;75.16
70521;BME280;58442;52.716;23.560;2023-12-07T01:53:47;101973.40;;;0.64;75.21
70521;BME280;58442;52.716;23.560;2023-12-07T01:55:54;101978.50;;;0.65;75.23
70521;BME280;58442;52.716;23.560;2023-12-07T01:57:56;101975.56;;;0.67;75.20
70521;BME280;58442;52.716;23.560;2023-12-07T01:59:58;101982.79;;;0.66;75.20
70521;BME280;58442;52.716;23.560;2023-12-07T02:02:03;101982.79;;;0.66;75.21
70521;BME280;58442;52.716;23.560;2023-12-07T02:04:04;101988.13;;;0.66;75.28
70521;BME280;58442;52.716;23.560;2023-12-07T02:06:06;101979.05;;;0.67;75.29
70521;BME280;58442;52.716;23.560;2023-12-07T02:08:09;101980.66;;;0.68;75.26
70521;BME280;58442;52.716;23.560;2023-12-07T02:10:18;101980.44;;;0.70;75.22
70521;BME280;58442;52.716;23.560;2023-12-07T02:12:20;101982.04;;;0.71;75.25
70521;BME280;58442;52.716;23.560;2023-12-07T02:14:22;101980.98;;;0.72;75.20
70521;BME280;58442;52.716;23.560;2023-12-07T02:16:30;101980.98;;;0.72;75.22
70521;BME280;58442;52.716;23.560;2023-12-07T02:18:41;101994.10;;;0.73;75.20
70521;BME280;58442;52.716;23.560;2023-12-07T02:23:17;101985.81;;;0.75;75.18
70521;BME280;58442;52.716;23.560;2023-12-07T02:25:24;101993.30;;;0.73;75.15
70521;BME280;58442;52.716;23.560;2023-12-07T02:27:37;101987.95;;;0.73;75.20
70521;BME280;58442;52.716;23.560;2023-12-07T02:29:39;101987.95;;;0.73;75.16
70521;BME280;58442;52.716;23.560;2023-12-07T02:31:40;101986.07;;;0.73;75.16
70521;BME280;58442;52.716;23.560;2023-12-07T02:33:42;101993.04;;;0.74;75.15
70521;BME280;58442;52.716;23.560;2023-12-07T02:35:44;101993.30;;;0.73;75.11
70521;BME280;58442;52.716;23.560;2023-12-07T02:37:48;102000.25;;;0.74;75.14
70521;BME280;58442;52.716;23.560;2023-12-07T02:39:51;101989.55;;;0.74;75.10
70521;BME280;58442;52.716;23.560;2023-12-07T02:41:55;101996.49;;;0.70;75.11
70521;BME280;58442;52.716;23.560;2023-12-07T02:43:57;101985.46;;;0.66;75.19
70521;BME280;58442;52.716;23.560;2023-12-07T02:45:59;101991.06;;;0.65;75.24
70521;BME280;58442;52.716;23.560;2023-12-07T02:48:04;101990.00;;;0.66;75.26
70521;BME280;58442;52.716;23.560;2023-12-07T02:50:07;101997.22;;;0.65;75.20
70521;BME280;58442;52.716;23.560;2023-12-07T02:52:09;101996.41;;;0.65;75.22
70521;BME280;58442;52.716;23.560;2023-12-07T02:54:10;101999.91;;;0.65;75.24
70521;BME280;58442;52.716;23.560;2023-12-07T02:56:18;102007.66;;;0.67;75.20
70521;BME280;58442;52.716;23.560;2023-12-07T02:58:20;102006.05;;;0.66;75.21
70521;BME280;58442;52.716;23.560;2023-12-07T03:00:22;102003.38;;;0.66;75.23
70521;BME280;58442;52.716;23.560;2023-12-07T03:02:24;102010.34;;;0.67;75.20
70521;BME280;58442;52.716;23.560;2023-12-07T03:04:34;102017.56;;;0.66;75.17
70521;BME280;58442;52.716;23.560;2023-12-07T03:06:35;102011.41;;;0.66;75.17
70521;BME280;58442;52.716;23.560;2023-12-07T03:08:37;102011.92;;;0.63;75.17
70521;BME280;58442;52.716;23.560;2023-12-07T03:10:38;102005.98;;;0.61;75.24
70521;BME280;58442;52.716;23.560;2023-12-07T03:12:49;102015.06;;;0.60;75.28
70521;BME280;58442;52.716;23.560;2023-12-07T03:14:50;102013.46;;;0.59;75.30
70521;BME280;58442;52.716;23.560;2023-12-07T03:16:52;102012.66;;;0.58;75.24
70521;BME280;58442;52.716;23.560;2023-12-07T03:18:53;102014.78;;;0.56;75.25
70521;BME280;58442;52.716;23.560;2023-12-07T03:21:04;102015.59;;;0.57;75.27
70521;BME280;58442;52.716;23.560;2023-12-07T03:23:06;102012.91;;;0.57;75.32
70521;BME280;58442;52.716;23.560;2023-12-07T03:25:07;102007.55;;;0.57;75.31
70521;BME280;58442;52.716;23.560;2023-12-07T03:27:09;102017.20;;;0.58;75.29
70521;BME280;58442;52.716;23.560;2023-12-07T03:29:20;102013.46;;;0.59;75.28
70521;BME280;58442;52.716;23.560;2023-12-07T03:31:21;102024.16;;;0.59;75.25
70521;BME280;58442;52.716;23.560;2023-12-07T03:33:24;102022.29;;;0.59;75.29
70521;BME280;58442;52.716;23.560;2023-12-07T03:35:25;102025.52;;;0.61;75.26
70521;BME280;58442;52.716;23.560;2023-12-07T03:37:35;102021.81;;;0.62;75.22
70521;BME280;58442;52.716;23.560;2023-12-07T03:39:37;102016.69;;;0.61;75.16
70521;BME280;58442;52.716;23.560;2023-12-07T03:41:38;102023.10;;;0.60;75.20
70521;BME280;58442;52.716;23.560;2023-12-07T03:43:40;102019.62;;;0.59;75.17
70521;BME280;58442;52.716;23.560;2023-12-07T03:45:51;102015.59;;;0.57;75.20
70521;BME280;58442;52.716;23.560;2023-12-07T03:47:53;102016.06;;;0.53;75.22
70521;BME280;58442;52.716;23.560;2023-12-07T03:49:54;102025.96;;;0.53;75.26
70521;BME280;58442;52.716;23.560;2023-12-07T03:51:56;102027.02;;;0.52;75.29
70521;BME280;58442;52.716;23.560;2023-12-07T03:54:06;102024.59;;;0.50;75.30
70521;BME280;58442;52.716;23.560;2023-12-07T03:56:08;102029.95;;;0.50;75.27
70521;BME280;58442;52.716;23.560;2023-12-07T03:58:10;102032.62;;;0.50;75.30
70521;BME280;58442;52.716;23.560;2023-12-07T04:00:12;102025.41;;;0.51;75.33
70521;BME280;58442;52.716;23.560;2023-12-07T04:02:21;102028.07;;;0.51;75.30
70521;BME280;58442;52.716;23.560;2023-12-07T04:04:23;102028.07;;;0.51;75.24
70521;BME280;58442;52.716;23.560;2023-12-07T04:06:25;102027.75;;;0.47;75.15
70521;BME280;58442;52.716;23.560;2023-12-07T04:08:26;102027.20;;;0.45;75.24
70521;BME280;58442;52.716;23.560;2023-12-07T04:10:36;102021.29;;;0.43;75.28
70521;BME280;58442;52.716;23.560;2023-12-07T04:12:38;102022.10;;;0.44;75.28
70521;BME280;58442;52.716;23.560;2023-12-07T04:14:40;102025.83;;;0.43;75.32
70521;BME280;58442;52.716;23.560;2023-12-07T04:16:41;102031.18;;;0.43;75.25
70521;BME280;58442;52.716;23.560;2023-12-07T04:18:51;102027.70;;;0.42;75.22
70521;BME280;58442;52.716;23.560;2023-12-07T04:20:53;102034.11;;;0.41;75.25
70521;BME280;58442;52.716;23.560;2023-12-07T04:22:54;102030.59;;;0.41;75.27
70521;BME280;58442;52.716;23.560;2023-12-07T04:24:56;102033.27;;;0.41;75.22
70521;BME280;58442;52.716;23.560;2023-12-07T04:27:07;102035.39;;;0.39;75.24
70521;BME280;58442;52.716;23.560;2023-12-07T04:29:08;102031.91;;;0.38;75.22
70521;BME280;58442;52.716;23.560;2023-12-07T04:31:10;102035.09;;;0.35;75.24
70521;BME280;58442;52.716;23.560;2023-12-07T04:33:12;102031.02;;;0.33;75.26
70521;BME280;58442;52.716;23.560;2023-12-07T04:35:22;102035.02;;;0.30;75.34
70521;BME280;58442;52.716;23.560;2023-12-07T04:37:24;102041.73;;;0.33;75.35
70521;BME280;58442;52.716;23.560;2023-12-07T04:39:25;102032.90;;;0.32;75.30
70521;BME280;58442;52.716;23.560;2023-12-07T04:41:27;102032.64;;;0.34;75.32
70521;BME280;58442;52.716;23.560;2023-12-07T04:43:37;102039.63;;;0.35;75.20
70521;BME280;58442;52.716;23.560;2023-12-07T04:45:39;102031.84;;;0.33;75.18
70521;BME280;58442;52.716;23.560;2023-12-07T04:47:40;102040.92;;;0.32;75.21
70521;BME280;58442;52.716;23.560;2023-12-07T04:49:42;102030.73;;;0.29;75.23
70521;BME280;58442;52.716;23.560;2023-12-07T04:51:52;102032.82;;;0.27;75.18
70521;BME280;58442;52.716;23.560;2023-12-07T04:53:54;102040.28;;;0.25;75.21
70521;BME280;58442;52.716;23.560;2023-12-07T04:55:56;102037.87;;;0.23;75.22
70521;BME280;58442;52.716;23.560;2023-12-07T04:57:57;102044.52;;;0.21;75.22
70521;BME280;58442;52.716;23.560;2023-12-07T05:00:08;102040.45;;;0.18;75.33
70521;BME280;58442;52.716;23.560;2023-12-07T05:02:17;102043.13;;;0.18;75.31
70521;BME280;58442;52.716;23.560;2023-12-07T05:04:19;102044.99;;;0.18;75.30
70521;BME280;58442;52.716;23.560;2023-12-07T05:06:21;102041.27;;;0.19;75.32
70521;BME280;58442;52.716;23.560;2023-12-07T05:08:24;102042.88;;;0.20;75.25
70521;BME280;58442;52.716;23.560;2023-12-07T05:10:25;102044.52;;;0.21;75.27
70521;BME280;58442;52.716;23.560;2023-12-07T05:12:27;102045.88;;;0.23;75.22
70521;BME280;58442;52.716;23.560;2023-12-07T05:14:30;102044.52;;;0.21;75.19
70521;BME280;58442;52.716;23.560;2023-12-07T05:16:39;102041.85;;;0.21;75.16
70521;BME280;58442;52.716;23.560;2023-12-07T05:18:41;102045.80;;;0.18;75.17
70521;BME280;58442;52.716;23.560;2023-12-07T05:20:44;102044.19;;;0.17;75.23
70521;BME280;58442;52.716;23.560;2023-12-07T05:22:46;102043.13;;;0.18;75.18
70521;BME280;58442;52.716;23.560;2023-12-07T05:24:54;102043.93;;;0.19;75.20
70521;BME280;58442;52.716;23.560;2023-12-07T05:26:56;102043.68;;;0.20;75.12
70521;BME280;58442;52.716;23.560;2023-12-07T05:28:58;102043.46;;;0.22;75.06
70521;BME280;58442;52.716;23.560;2023-12-07T05:31:00;102045.55;;;0.20;75.01
70521;BME280;58442;52.716;23.560;2023-12-07T05:33:09;102048.48;;;0.18;74.99
70521;BME280;58442;52.716;23.560;2023-12-07T05:35:10;102044.99;;;0.18;75.06
70521;BME280;58442;52.716;23.560;2023-12-07T05:37:12;102043.93;;;0.19;75.03
70521;BME280;58442;52.716;23.560;2023-12-07T05:39:14;102050.34;;;0.18;74.98
70521;BME280;58442;52.716;23.560;2023-12-07T05:41:24;102048.17;;;0.15;74.97
70521;BME280;58442;52.716;23.560;2023-12-07T05:43:26;102045.49;;;0.15;75.02
70521;BME280;58442;52.716;23.560;2023-12-07T05:45:28;102054.80;;;0.12;75.00
70521;BME280;58442;52.716;23.560;2023-12-07T05:47:29;102059.59;;;0.10;75.03
70521;BME280;58442;52.716;23.560;2023-12-07T05:49:39;102058.78;;;0.10;75.06
70521;BME280;58442;52.716;23.560;2023-12-07T05:51:41;102060.90;;;0.08;75.07
70521;BME280;58442;52.716;23.560;2023-12-07T05:53:43;102069.94;;;0.07;75.17
70521;BME280;58442;52.716;23.560;2023-12-07T05:55:44;102057.16;;;0.09;75.19
70521;BME280;58442;52.716;23.560;2023-12-07T05:57:55;102063.57;;;0.08;75.09
70521;BME280;58442;52.716;23.560;2023-12-07T05:59:57;102064.04;;;0.05;75.15
70521;BME280;58442;52.716;23.560;2023-12-07T06:01:58;102067.21;;;0.02;75.17
70521;BME280;58442;52.716;23.560;2023-12-07T06:04:00;102066.63;;;-0.01;75.30
70521;BME280;58442;52.716;23.560;2023-12-07T06:06:11;102071.75;;;0.01;75.34
70521;BME280;58442;52.716;23.560;2023-12-07T06:08:12;102066.40;;;0.01;75.27
70521;BME280;58442;52.716;23.560;2023-12-07T06:10:14;102071.50;;;0.03;75.21
70521;BME280;58442;52.716;23.560;2023-12-07T06:12:16;102069.64;;;0.03;75.15
70521;BME280;58442;52.716;23.560;2023-12-07T06:14:25;102076.29;;;0.01;75.15
70521;BME280;58442;52.716;23.560;2023-12-07T06:16:27;102082.91;;;-0.02;75.26
70521;BME280;58442;52.716;23.560;2023-12-07T06:18:28;102074.09;;;-0.03;75.26
70521;BME280;58442;52.716;23.560;2023-12-07T06:20:30;102077.01;;;-0.04;75.21
70521;BME280;58442;52.716;23.560;2023-12-07T06:22:40;102087.95;;;-0.06;75.21
70521;BME280;58442;52.716;23.560;2023-12-07T06:24:42;102081.79;;;-0.06;75.28
70521;BME280;58442;52.716;23.560;2023-12-07T06:26:44;102081.79;;;-0.06;75.24
70521;BME280;58442;52.716;23.560;2023-12-07T06:28:45;102084.22;;;-0.05;75.28
70521;BME280;58442;52.716;23.560;2023-12-07T06:30:55;102086.40;;;-0.02;75.29
70521;BME280;58442;52.716;23.560;2023-12-07T06:32:58;102097.08;;;-0.02;75.18
70521;BME280;58442;52.716;23.560;2023-12-07T06:35:00;102087.20;;;-0.01;75.09
70521;BME280;58442;52.716;23.560;2023-12-07T06:37:02;102090.92;;;-0.02;75.12
70521;BME280;58442;52.716;23.560;2023-12-07T06:39:10;102081.04;;;-0.02;75.08
70521;BME280;58442;52.716;23.560;2023-12-07T06:41:12;102092.79;;;-0.03;75.08
70521;BME280;58442;52.716;23.560;2023-12-07T06:43:14;102091.73;;;-0.02;75.12
70521;BME280;58442;52.716;23.560;2023-12-07T06:45:15;102097.67;;;0.01;75.05
70521;BME280;58442;52.716;23.560;2023-12-07T06:47:26;102101.61;;;-0.02;75.00
70521;BME280;58442;52.716;23.560;2023-12-07T06:49:28;102102.42;;;-0.02;75.03
70521;BME280;58442;52.716;23.560;2023-12-07T06:51:30;102107.55;;;0.00;75.01
70521;BME280;58442;52.716;23.560;2023-12-07T06:53:31;102101.37;;;-0.01;74.92
70521;BME280;58442;52.716;23.560;2023-12-07T06:55:42;102104.03;;;-0.01;75.02
70521;BME280;58442;52.716;23.560;2023-12-07T06:57:44;102112.90;;;0.00;75.01
70521;BME280;58442;52.716;23.560;2023-12-07T06:59:46;102112.90;;;0.00;75.02
70521;BME280;58442;52.716;23.560;2023-12-07T07:01:49;102105.68;;;0.01;74.99
70521;BME280;58442;52.716;23.560;2023-12-07T07:03:57;102107.55;;;0.00;74.96
70521;BME280;58442;52.716;23.560;2023-12-07T07:05:59;102119.61;;;0.03;74.98
70521;BME280;58442;52.716;23.560;2023-12-07T07:08:01;102111.09;;;0.06;74.91
70521;BME280;58442;52.716;23.560;2023-12-07T07:10:03;102118.64;;;0.09;74.85
70521;BME280;58442;52.716;23.560;2023-12-07T07:12:12;102110.13;;;0.12;74.75
70521;BME280;58442;52.716;23.560;2023-12-07T07:14:14;102114.19;;;0.14;74.71
70521;BME280;58442;52.716;23.560;2023-12-07T07:16:16;102118.48;;;0.15;74.65
70521;BME280;58442;52.716;23.560;2023-12-07T07:18:18;102118.23;;;0.17;74.62
70521;BME280;58442;52.716;23.560;2023-12-07T07:20:28;102124.38;;;0.17;74.64
70521;BME280;58442;52.716;23.560;2023-12-07T07:22:30;102125.19;;;0.18;74.62
70521;BME280;58442;52.716;23.560;2023-12-07T07:24:32;102128.68;;;0.18;74.56
70521;BME280;58442;52.716;23.560;2023-12-07T07:26:33;102125.99;;;0.18;74.56
70521;BME280;58442;52.716;23.560;2023-12-07T07:28:44;102131.09;;;0.20;74.47
70521;BME280;58442;52.716;23.560;2023-12-07T07:30:45;102123.33;;;0.18;74.38
70521;BME280;58442;52.716;23.560;2023-12-07T07:32:47;102127.87;;;0.18;74.35
70521;BME280;58442;52.716;23.560;2023-12-07T07:34:50;102128.92;;;0.17;74.35
70521;BME280;58442;52.716;23.560;2023-12-07T07:36:59;102128.92;;;0.17;74.42
70521;BME280;58442;52.716;23.560;2023-12-07T07:39:00;102135.08;;;0.17;74.38
70521;BME280;58442;52.716;23.560;2023-12-07T07:41:02;102138.00;;;0.16;74.34
70521;BME280;58442;52.716;23.560;2023-12-07T07:43:03;102142.28;;;0.17;74.47
70521;BME280;58442;52.716;23.560;2023-12-07T07:45:14;102130.28;;;0.19;74.41
70521;BME280;58442;52.716;23.560;2023-12-07T07:47:17;102135.89;;;0.18;74.42
70521;BME280;58442;52.716;23.560;2023-12-07T07:49:18;102136.45;;;0.20;74.37
70521;BME280;58442;52.716;23.560;2023-12-07T07:51:20;102140.51;;;0.22;74.38
70521;BME280;58442;52.716;23.560;2023-12-07T07:53:29;102144.30;;;0.26;74.33
70521;BME280;58442;52.716;23.560;2023-12-07T07:55:30;102147.32;;;0.30;74.21
70521;BME280;58442;52.716;23.560;2023-12-07T07:57:32;102137.43;;;0.31;74.14
70521;BME280;58442;52.716;23.560;2023-12-07T07:59:34;102145.19;;;0.32;74.13
70521;BME280;58442;52.716;23.560;2023-12-07T08:01:45;102157.29;;;0.35;74.10
70521;BME280;58442;52.716;23.560;2023-12-07T08:03:48;102161.32;;;0.37;74.02
70521;BME280;58442;52.716;23.560;2023-12-07T08:05:49;102160.27;;;0.38;73.94
70521;BME280;58442;52.716;23.560;2023-12-07T08:07:51;102160.02;;;0.40;73.90
70521;BME280;58442;52.716;23.560;2023-12-07T08:09:59;102157.94;;;0.42;73.91
70521;BME280;58442;52.716;23.560;2023-12-07T08:12:01;102165.20;;;0.46;73.80
70521;BME280;58442;52.716;23.560;2023-12-07T08:14:02;102166.35;;;0.50;73.72
70521;BME280;58442;52.716;23.560;2023-12-07T08:16:07;102158.07;;;0.52;73.66
70521;BME280;58442;52.716;23.560;2023-12-07T08:18:14;102167.96;;;0.51;73.56
70521;BME280;58442;52.716;23.560;2023-12-07T08:20:16;102172.00;;;0.54;73.48
70521;BME280;58442;52.716;23.560;2023-12-07T08:22:17;102171.27;;;0.59;73.51
70521;BME280;58442;52.716;23.560;2023-12-07T08:24:19;102175.66;;;0.65;73.46
70521;BME280;58442;52.716;23.560;2023-12-07T08:26:29;102181.65;;;0.72;73.26
70521;BME280;58442;52.716;23.560;2023-12-07T08:28:31;102169.16;;;0.77;73.20
70521;BME280;58442;52.716;23.560;2023-12-07T08:30:32;102174.59;;;0.83;73.09
70521;BME280;58442;52.716;23.560;2023-12-07T08:32:34;102175.22;;;0.90;73.00
70521;BME280;58442;52.716;23.560;2023-12-07T08:34:44;102171.31;;;0.97;72.78
70521;BME280;58442;52.716;23.560;2023-12-07T08:36:46;102171.86;;;0.99;72.61
70521;BME280;58442;52.716;23.560;2023-12-07T08:38:48;102177.52;;;1.03;72.65
70521;BME280;58442;52.716;23.560;2023-12-07T08:40:50;102174.66;;;1.09;72.54
70521;BME280;58442;52.716;23.560;2023-12-07T08:42:59;102172.05;;;1.15;72.46
70521;BME280;58442;52.716;23.560;2023-12-07T08:45:01;102168.90;;;1.18;72.32
70521;BME280;58442;52.716;23.560;2023-12-07T08:47:03;102180.64;;;1.17;72.13
70521;BME280;58442;52.716;23.560;2023-12-07T08:49:06;102172.86;;;1.15;72.36
70521;BME280;58442;52.716;23.560;2023-12-07T08:51:14;102180.16;;;1.20;72.35
70521;BME280;58442;52.716;23.560;2023-12-07T08:53:16;102182.65;;;1.26;72.17
70521;BME280;58442;52.716;23.560;2023-12-07T08:55:18;102183.46;;;1.27;72.12
70521;BME280;58442;52.716;23.560;2023-12-07T08:57:20;102179.45;;;1.29;72.08
70521;BME280;58442;52.716;23.560;2023-12-07T08:59:30;102186.76;;;1.34;72.00
70521;BME280;58442;52.716;23.560;2023-12-07T09:01:32;102187.57;;;1.34;71.88
70521;BME280;58442;52.716;23.560;2023-12-07T09:03:35;102193.73;;;1.35;71.92
70521;BME280;58442;52.716;23.560;2023-12-07T09:05:38;102188.70;;;1.39;71.91
70521;BME280;58442;52.716;23.560;2023-12-07T09:07:46;102185.76;;;1.40;71.65
70521;BME280;58442;52.716;23.560;2023-12-07T09:09:48;102189.51;;;1.39;71.61
70521;BME280;58442;52.716;23.560;2023-12-07T09:11:49;102195.13;;;1.38;71.49
70521;BME280;58442;52.716;23.560;2023-12-07T09:13:51;102187.09;;;1.38;71.54
70521;BME280;58442;52.716;23.560;2023-12-07T09:16:01;102186.82;;;1.39;71.50
70521;BME280;58442;52.716;23.560;2023-12-07T09:18:03;102185.21;;;1.38;71.43
70521;BME280;58442;52.716;23.560;2023-12-07T09:20:07;102187.09;;;1.38;71.46
70521;BME280;58442;52.716;23.560;2023-12-07T09:22:13;102186.26;;;1.37;71.43
70521;BME280;58442;52.716;23.560;2023-12-07T09:24:17;102181.95;;;1.36;71.49
70521;BME280;58442;52.716;23.560;2023-12-07T09:26:19;102175.54;;;1.37;71.54
70521;BME280;58442;52.716;23.560;2023-12-07T09:28:20;102173.19;;;1.41;71.50
70521;BME280;58442;52.716;23.560;2023-12-07T09:30:22;102173.99;;;1.41;71.37
70521;BME280;58442;52.716;23.560;2023-12-07T09:32:31;102168.63;;;1.41;71.31
70521;BME280;58442;52.716;23.560;2023-12-07T09:34:33;102164.34;;;1.40;71.28
70521;BME280;58442;52.716;23.560;2023-12-07T09:36:36;102165.95;;;1.41;71.21
70521;BME280;58442;52.716;23.560;2023-12-07T09:38:37;102171.86;;;1.43;71.15
70521;BME280;58442;52.716;23.560;2023-12-07T09:40:51;102173.25;;;1.46;71.10
70521;BME280;58442;52.716;23.560;2023-12-07T09:42:53;102167.63;;;1.47;71.02
70521;BME280;58442;52.716;23.560;2023-12-07T09:44:55;102167.63;;;1.47;70.93
70521;BME280;58442;52.716;23.560;2023-12-07T09:46:57;102169.18;;;1.43;70.96
70521;BME280;58442;52.716;23.560;2023-12-07T09:49:01;102166.76;;;1.42;70.97
70521;BME280;58442;52.716;23.560;2023-12-07T09:51:04;102175.05;;;1.40;70.98
70521;BME280;58442;52.716;23.560;2023-12-07T09:53:08;102171.01;;;1.38;70.94
70521;BME280;58442;52.716;23.560;2023-12-07T09:55:10;102168.57;;;1.36;70.98
70521;BME280;58442;52.716;23.560;2023-12-07T09:57:16;102171.01;;;1.38;71.06
70521;BME280;58442;52.716;23.560;2023-12-07T09:59:18;102158.18;;;1.40;70.94
70521;BME280;58442;52.716;23.560;2023-12-07T10:01:20;102155.50;;;1.40;70.97
70521;BME280;58442;52.716;23.560;2023-12-07T10:03:22;102160.59;;;1.41;70.94
70521;BME280;58442;52.716;23.560;2023-12-07T10:05:32;102159.28;;;1.44;70.86
70521;BME280;58442;52.716;23.560;2023-12-07T10:07:34;102165.76;;;1.48;70.80
70521;BME280;58442;52.716;23.560;2023-12-07T10:09:39;102159.34;;;1.49;70.76
70521;BME280;58442;52.716;23.560;2023-12-07T10:11:42;102159.66;;;1.52;70.65
70521;BME280;58442;52.716;23.560;2023-12-07T10:13:47;102158.59;;;1.53;70.47
70521;BME280;58442;52.716;23.560;2023-12-07T10:16:04;102166.09;;;1.51;70.43
70521;BME280;58442;52.716;23.560;2023-12-07T10:18:00;102156.18;;;1.52;70.34
70521;BME280;58442;52.716;23.560;2023-12-07T10:20:08;102156.41;;;1.50;70.32
70521;BME280;58442;52.716;23.560;2023-12-07T10:22:15;102152.11;;;1.49;70.40
70521;BME280;58442;52.716;23.560;2023-12-07T10:24:26;102158.27;;;1.50;70.25
70521;BME280;58442;52.716;23.560;2023-12-07T10:26:30;102159.34;;;1.49;70.29
70521;BME280;58442;52.716;23.560;2023-12-07T10:28:34;102153.72;;;1.50;70.32
70521;BME280;58442;52.716;23.560;2023-12-07T10:30:40;102160.73;;;1.51;70.21
70521;BME280;58442;52.716;23.560;2023-12-07T10:32:44;102169.80;;;1.50;70.12
70521;BME280;58442;52.716;23.560;2023-12-07T10:34:46;102162.02;;;1.49;70.11
70521;BME280;58442;52.716;23.560;2023-12-07T10:36:48;102164.70;;;1.49;70.12
70521;BME280;58442;52.716;23.560;2023-12-07T10:38:54;102162.56;;;1.51;70.10
70521;BME280;58442;52.716;23.560;2023-12-07T10:41:04;102160.73;;;1.51;70.04
70521;BME280;58442;52.716;23.560;2023-12-07T10:43:19;102161.02;;;1.55;70.10
70521;BME280;58442;52.716;23.560;2023-12-07T10:45:24;102158.69;;;1.63;69.95
70521;BME280;58442;52.716;23.560;2023-12-07T10:47:26;102168.92;;;1.67;69.77
70521;BME280;58442;52.716;23.560;2023-12-07T10:49:29;102156.88;;;1.69;69.71